This is the latest recevied weather packets stored in our database for station/object DN9EL-10. If no packets are shown the sender has not sent any weather packets the latest 1 day(s).
| Time | Temp. | Humidity | Pressure | Rain* | Wind** | Luminosity | Snow |
|---|---|---|---|---|---|---|---|
| 1778092794 | 17.78° C | 48% | 951.3 hPa | - | - | - | - |
| 1778091894 | 18.33° C | 46% | 951.3 hPa | - | - | - | - |
| 1778090994 | 18.89° C | 44% | 951.2 hPa | - | - | - | - |
| 1778085593 | 20.56° C | 40% | 950.8 hPa | - | - | - | - |
| 1778084693 | 20.56° C | 40% | 950.9 hPa | - | - | - | - |
| 1778083793 | 20.56° C | 40% | 951 hPa | - | - | - | - |
| 1778082893 | 20° C | 40% | 951.2 hPa | - | - | - | - |
| 1778081993 | 20° C | 41% | 951.5 hPa | - | - | - | - |
| 1778080193 | 19.44° C | 42% | 951.6 hPa | - | - | - | - |
| 1778079293 | 19.44° C | 41% | 951.6 hPa | - | - | - | - |
| 1778072092 | 18.33° C | 45% | 951.9 hPa | - | - | - | - |
| 1778071192 | 18.33° C | 46% | 952 hPa | - | - | - | - |
| 1778069391 | 17.78° C | 47% | 952.1 hPa | - | - | - | - |
| 1778068485 | 17.78° C | 47% | 952.1 hPa | - | - | - | - |
| 1778067585 | 17.22° C | 48% | 952 hPa | - | - | - | - |
| 1778063984 | 15.56° C | 51% | 952.3 hPa | - | - | - | - |
| 1778061284 | 14.44° C | 57% | 952.1 hPa | - | - | - | - |
| 1778060384 | 14.44° C | 57% | 952.1 hPa | - | - | - | - |
| 1778059484 | 13.89° C | 58% | 951.8 hPa | - | - | - | - |
| 1778058584 | 13.89° C | 60% | 951.9 hPa | - | - | - | - |
| 1778054083 | 12.22° C | 67% | 951.2 hPa | - | - | - | - |
| 1778052283 | 11.11° C | 70% | 951.1 hPa | - | - | - | - |
| 1778051383 | 11.11° C | 71% | 951.3 hPa | - | - | - | - |
| 1778050483 | 10.56° C | 69% | 951.5 hPa | - | - | - | - |
| 1778049583 | 10.56° C | 72% | 951.5 hPa | - | - | - | - |
* Rain since midnight (hover to see other rain measurements)
** Current wind speed in m/s (hover to see current wind gust speed)